PROFILE

 METAR AND TAF INFORMATION
ADDS - METARS form results

(0719 UTC 20 September 2020)
http://aviationweather.gov/metar/data/
 
FYWB 200700Z 01004KT 9999 OVC004 11/10 Q1019
TAF FYWB 200400Z 2006/2106 01005KT 9999 BKN010 TEMPO 2006/2007 0900 FG OVC009 BECMG 2007/2009 31006KT 9999 BKN014 BECMG 2010/2012 21017KT CAVOK 

 AIRPORT MAP

 RUNWAY INFORMATION
Runway 09 Runway length 7001 ft Runway width 98 ft
Runway elevation 248 ft Runway displaced threshold 0 ft Runway heading 72
Runway 27 Runway length 7001 ft Runway width 98 ft
Runway elevation 299 ft Runway displaced threshold 0 ft Runway heading 252

 AIRPORT FREQUENCIES
Type APP Name APP Frequency 122.5 MHZ
Type TWR Name TWR Frequency 122.5 MHZ

 AIRPORT NEAR NAVIGATION AIDS
Type NDB Name Walvis Bay Frequency 225 KHZ
Type VOR-DME Name Walvis Bay Frequency 113600 KHZ